Time;durP1;ratioP1;P1;durP2;ratioP2;P2;SDS_P1;SDS_P2;PMS_P1;PMS_P2;Temp;Humidity;BMP_temperature;BMP_pressure;BME280_temperature;BME280_humidity;BME280_pressure;Samples;Min_cycle;Max_cycle;Signal;HPM_P1;HPM_P2
2021/05/16 00:02:19;;;;;;;6.27;2.50;;;10.70;99.90;;;;;;5068437;28;20862;-41
2021/05/16 00:04:45;;;;;;;6.33;2.70;;;10.80;99.90;;;;;;5069857;28;20205;-40
2021/05/16 00:07:10;;;;;;;4.07;2.17;;;10.70;99.90;;;;;;5069835;28;20204;-43
2021/05/16 00:09:37;;;;;;;4.87;2.47;;;10.80;99.90;;;;;;5067717;28;20198;-41
2021/05/16 00:12:03;;;;;;;5.10;2.57;;;10.80;99.90;;;;;;5069806;28;20193;-42
2021/05/16 00:14:30;;;;;;;5.90;2.23;;;10.90;99.90;;;;;;5070046;28;20427;-41
2021/05/16 00:16:55;;;;;;;6.10;2.53;;;11.00;99.90;;;;;;5061394;28;20442;-41
2021/05/16 00:19:21;;;;;;;4.67;2.67;;;10.90;99.90;;;;;;5069121;28;20412;-40
2021/05/16 00:21:47;;;;;;;8.57;2.37;;;10.90;99.90;;;;;;5069565;28;20560;-40
2021/05/16 00:24:14;;;;;;;6.50;2.73;;;11.00;99.90;;;;;;5069280;28;20201;-40
2021/05/16 00:26:39;;;;;;;6.73;2.80;;;10.90;99.90;;;;;;5069473;28;20908;-41
2021/05/16 00:29:05;;;;;;;5.03;2.40;;;10.90;99.90;;;;;;5067883;28;20418;-40
2021/05/16 00:31:31;;;;;;;4.60;2.30;;;10.90;99.90;;;;;;5062420;28;20193;-41
2021/05/16 00:33:57;;;;;;;9.50;3.57;;;10.90;99.90;;;;;;5069411;28;20189;-41
2021/05/16 00:36:23;;;;;;;8.73;2.37;;;11.00;99.90;;;;;;5069386;28;20189;-40
2021/05/16 00:38:49;;;;;;;5.73;2.43;;;10.90;99.90;;;;;;5068423;28;20673;-40
2021/05/16 00:41:15;;;;;;;4.73;2.03;;;10.90;99.90;;;;;;5069221;28;20430;-40
2021/05/16 00:43:41;;;;;;;11.17;3.50;;;11.00;99.90;;;;;;5069056;28;20416;-43
2021/05/16 00:46:10;;;;;;;7.40;2.53;;;10.90;99.90;;;;;;5061074;28;20893;-43
2021/05/16 00:48:37;;;;;;;5.80;2.73;;;10.90;99.90;;;;;;5067290;28;20188;-42
2021/05/16 00:51:02;;;;;;;6.93;3.20;;;10.90;99.90;;;;;;5061115;28;20944;-40
2021/05/16 00:53:28;;;;;;;5.63;2.73;;;11.00;99.90;;;;;;5067667;28;20403;-40
2021/05/16 00:55:56;;;;;;;11.63;4.23;;;11.00;99.90;;;;;;5066333;28;20207;-40
2021/05/16 00:58:22;;;;;;;10.03;3.33;;;11.00;99.90;;;;;;5068868;28;20192;-40
2021/05/16 01:00:47;;;;;;;7.73;2.70;;;10.90;99.90;;;;;;5068558;28;20775;-40
2021/05/16 01:03:13;;;;;;;6.97;2.40;;;11.00;99.90;;;;;;5060700;28;20680;-41
2021/05/16 01:05:43;;;;;;;6.27;3.10;;;10.90;99.90;;;;;;5070147;28;20629;-40
2021/05/16 01:08:10;;;;;;;7.43;3.27;;;11.00;99.90;;;;;;5081669;28;20430;-41
2021/05/16 01:10:36;;;;;;;7.47;2.70;;;10.90;99.90;;;;;;5085571;28;20415;-44
2021/05/16 01:13:08;;;;;;;8.30;3.37;;;10.90;99.90;;;;;;5087765;28;20433;-43
2021/05/16 01:15:39;;;;;;;7.10;3.73;;;10.90;99.90;;;;;;5077354;28;20415;-40
2021/05/16 01:18:05;;;;;;;6.13;2.90;;;10.90;99.90;;;;;;5060775;28;20514;-41
2021/05/16 01:20:35;;;;;;;8.97;3.80;;;10.90;99.90;;;;;;5074345;28;20563;-41
2021/05/16 01:23:02;;;;;;;5.17;2.83;;;10.80;99.90;;;;;;5084936;28;20434;-40
2021/05/16 01:25:33;;;;;;;9.33;3.20;;;10.80;99.90;;;;;;5080575;28;20459;-43
2021/05/16 01:27:59;;;;;;;9.87;2.83;;;10.80;99.90;;;;;;5085703;28;20415;-42
2021/05/16 01:30:25;;;;;;;11.57;3.30;;;10.80;99.90;;;;;;5103450;28;20426;-41
2021/05/16 01:32:52;;;;;;;7.23;3.30;;;10.80;99.90;;;;;;5064230;28;20423;-41
2021/05/16 01:35:19;;;;;;;15.93;3.73;;;10.90;99.90;;;;;;5068121;28;20231;-41
2021/05/16 01:37:46;;;;;;;13.10;2.77;;;10.90;99.90;;;;;;5068030;28;20423;-43
2021/05/16 01:40:12;;;;;;;9.47;2.80;;;10.90;99.90;;;;;;5067779;28;20424;-40
2021/05/16 01:42:44;;;;;;;9.83;3.20;;;11.00;99.90;;;;;;5068165;28;20451;-43
2021/05/16 01:45:14;;;;;;;7.87;2.20;;;11.00;99.90;;;;;;5068286;28;20525;-41
2021/05/16 01:47:40;;;;;;;9.10;2.60;;;11.00;99.90;;;;;;5060068;28;20432;-40
2021/05/16 01:50:09;;;;;;;8.60;2.83;;;11.00;99.90;;;;;;5067511;28;20414;-42
2021/05/16 01:52:35;;;;;;;5.93;2.63;;;11.00;99.90;;;;;;5067900;28;20403;-41
2021/05/16 01:55:02;;;;;;;5.90;2.50;;;11.10;99.90;;;;;;5068194;28;21082;-41
2021/05/16 01:57:28;;;;;;;15.30;3.27;;;11.00;99.90;;;;;;5067909;28;20464;-42
2021/05/16 01:59:55;;;;;;;8.23;2.77;;;11.00;99.90;;;;;;5067396;28;20427;-40
2021/05/16 02:02:20;;;;;;;8.73;2.60;;;11.00;99.90;;;;;;5064900;28;20423;-41
2021/05/16 02:04:47;;;;;;;6.70;2.50;;;11.00;99.90;;;;;;5062366;28;21087;-41
2021/05/16 02:07:13;;;;;;;9.80;4.00;;;11.00;99.90;;;;;;5067911;28;20250;-41
2021/05/16 02:09:39;;;;;;;13.40;2.40;;;11.00;99.90;;;;;;5066453;28;20430;-40
2021/05/16 02:12:06;;;;;;;5.10;2.17;;;11.10;99.90;;;;;;5068100;28;20823;-41
2021/05/16 02:14:32;;;;;;;8.13;2.67;;;11.00;99.90;;;;;;5067708;28;20426;-42
2021/05/16 02:17:00;;;;;;;9.63;3.10;;;10.90;99.90;;;;;;5088222;28;20471;-42
2021/05/16 02:19:26;;;;;;;6.43;2.17;;;11.00;99.90;;;;;;5059569;28;20453;-41
2021/05/16 02:21:52;;;;;;;6.27;2.50;;;11.10;99.90;;;;;;5075493;28;20419;-41
2021/05/16 02:24:18;;;;;;;4.20;1.90;;;11.00;99.90;;;;;;5067516;28;20487;-43
2021/05/16 02:26:45;;;;;;;7.70;2.70;;;11.00;99.90;;;;;;5068059;28;20415;-42
2021/05/16 02:29:11;;;;;;;10.63;2.70;;;11.00;99.90;;;;;;5066979;28;20420;-42
2021/05/16 02:31:37;;;;;;;7.67;3.00;;;11.00;99.90;;;;;;5067863;28;20770;-41
2021/05/16 02:34:04;;;;;;;6.07;2.07;;;11.00;99.90;;;;;;5054074;28;20182;-43
2021/05/16 02:36:30;;;;;;;6.40;2.73;;;11.00;99.90;;;;;;5067610;28;20485;-43
2021/05/16 02:38:55;;;;;;;7.03;2.43;;;11.00;99.90;;;;;;5067120;28;20795;-41
2021/05/16 02:41:22;;;;;;;10.97;3.40;;;11.10;99.90;;;;;;5067435;28;20423;-40
2021/05/16 02:43:48;;;;;;;7.77;2.40;;;11.10;99.90;;;;;;5067431;28;20743;-44
2021/05/16 02:46:14;;;;;;;8.13;2.63;;;11.10;99.90;;;;;;5067695;28;20556;-40
2021/05/16 02:48:39;;;;;;;4.90;2.17;;;11.10;99.90;;;;;;5058063;28;20190;-40
2021/05/16 02:51:05;;;;;;;11.27;2.67;;;11.10;99.90;;;;;;5068679;28;20238;-40
2021/05/16 02:53:32;;;;;;;5.63;2.50;;;11.10;99.90;;;;;;5081619;28;20193;-41
2021/05/16 02:55:57;;;;;;;9.20;2.63;;;11.10;99.90;;;;;;5087639;28;20422;-41
2021/05/16 02:58:23;;;;;;;6.40;2.37;;;11.10;99.90;;;;;;5081239;28;20934;-41
2021/05/16 03:00:49;;;;;;;6.20;2.20;;;11.10;99.90;;;;;;5087210;28;20195;-40
2021/05/16 03:03:15;;;;;;;4.30;1.67;;;11.10;99.90;;;;;;5076902;28;20186;-44
2021/05/16 03:05:41;;;;;;;12.13;2.50;;;11.10;99.90;;;;;;5061536;28;20217;-41
2021/05/16 03:08:06;;;;;;;13.60;2.80;;;11.10;99.90;;;;;;5070569;28;20209;-41
2021/05/16 03:10:32;;;;;;;8.67;2.77;;;11.00;99.90;;;;;;5087161;28;20250;-41
2021/05/16 03:12:58;;;;;;;10.37;3.10;;;11.10;99.90;;;;;;5085033;28;20430;-41
2021/05/16 03:15:24;;;;;;;9.77;2.33;;;11.00;99.90;;;;;;5075593;28;20410;-42
2021/05/16 03:17:49;;;;;;;5.47;2.27;;;11.00;99.90;;;;;;5088628;28;20200;-40
2021/05/16 03:20:15;;;;;;;9.83;2.80;;;11.10;99.90;;;;;;5060785;28;20189;-41
2021/05/16 03:22:41;;;;;;;6.43;2.20;;;11.10;99.90;;;;;;5070689;28;20197;-42
2021/05/16 03:25:10;;;;;;;7.13;2.83;;;11.10;99.90;;;;;;5070728;28;20212;-42
2021/05/16 03:27:36;;;;;;;9.43;3.10;;;11.10;99.90;;;;;;5070570;28;20424;-41
2021/05/16 03:30:03;;;;;;;6.70;3.00;;;11.10;99.90;;;;;;5070051;28;20411;-40
2021/05/16 03:32:29;;;;;;;9.60;2.57;;;11.10;99.90;;;;;;5068007;28;20452;-41
2021/05/16 03:34:55;;;;;;;6.47;2.80;;;11.00;99.90;;;;;;5066644;28;20431;-43
2021/05/16 03:37:21;;;;;;;10.40;3.27;;;11.00;99.90;;;;;;5069111;28;20469;-41
2021/05/16 03:39:46;;;;;;;6.00;2.30;;;10.90;99.90;;;;;;5069749;28;20200;-42
2021/05/16 03:42:12;;;;;;;9.13;2.20;;;11.00;99.90;;;;;;5070255;28;20611;-43
2021/05/16 03:44:38;;;;;;;10.07;2.60;;;11.00;99.90;;;;;;5070246;28;20216;-42
2021/05/16 03:47:03;;;;;;;8.07;2.10;;;11.00;99.90;;;;;;5068071;28;20221;-41
2021/05/16 03:49:29;;;;;;;8.47;2.50;;;11.00;99.90;;;;;;5067372;28;20247;-42
2021/05/16 03:51:55;;;;;;;8.57;2.53;;;11.00;99.90;;;;;;5086608;28;20273;-41
2021/05/16 03:54:21;;;;;;;9.50;2.70;;;11.00;99.90;;;;;;5078524;28;20222;-41
2021/05/16 03:56:46;;;;;;;6.23;2.53;;;11.00;99.90;;;;;;5087895;28;20193;-43
2021/05/16 03:59:12;;;;;;;13.23;2.50;;;11.00;99.90;;;;;;5090046;28;20638;-40
2021/05/16 04:01:38;;;;;;;6.83;2.87;;;10.90;99.90;;;;;;5090269;28;20203;-41
2021/05/16 04:04:04;;;;;;;7.33;2.97;;;11.00;99.90;;;;;;5079136;28;20220;-43
2021/05/16 04:06:30;;;;;;;14.37;3.00;;;11.00;99.90;;;;;;5070168;28;20916;-41
2021/05/16 04:08:55;;;;;;;9.10;2.40;;;11.00;99.90;;;;;;5080221;28;20487;-41
2021/05/16 04:11:21;;;;;;;9.50;3.33;;;10.90;99.90;;;;;;5089759;28;20200;-42
2021/05/16 04:13:47;;;;;;;7.20;2.50;;;11.00;99.90;;;;;;5070951;28;20192;-40
2021/05/16 04:16:13;;;;;;;10.87;3.90;;;11.00;99.90;;;;;;5084372;28;20176;-42
2021/05/16 04:18:39;;;;;;;8.33;2.87;;;11.00;99.90;;;;;;5080715;28;20451;-41
2021/05/16 04:21:05;;;;;;;9.60;2.43;;;11.10;99.90;;;;;;5063707;28;20786;-43
2021/05/16 04:23:34;;;;;;;7.70;2.33;;;11.20;99.90;;;;;;5069419;28;20275;-41
2021/05/16 04:25:59;;;;;;;8.10;2.87;;;11.10;99.90;;;;;;5069314;28;20463;-42
2021/05/16 04:28:25;;;;;;;11.20;2.53;;;11.10;99.90;;;;;;5069400;28;20422;-43
2021/05/16 04:30:51;;;;;;;8.03;3.03;;;11.10;99.90;;;;;;5068872;28;20735;-42
2021/05/16 04:33:16;;;;;;;5.17;2.73;;;11.10;99.90;;;;;;5068785;28;20698;-41
2021/05/16 04:35:42;;;;;;;11.83;2.37;;;11.10;99.90;;;;;;5064523;28;20202;-42
2021/05/16 04:38:08;;;;;;;5.90;2.67;;;11.10;99.90;;;;;;5080225;28;20333;-42
2021/05/16 04:40:33;;;;;;;6.40;2.60;;;11.10;99.90;;;;;;5068511;28;20193;-43
2021/05/16 04:42:59;;;;;;;5.60;2.43;;;11.10;99.90;;;;;;5069175;28;20338;-41
2021/05/16 04:45:25;;;;;;;11.37;2.70;;;11.20;99.90;;;;;;5069227;28;20216;-42
2021/05/16 04:47:51;;;;;;;6.30;2.70;;;11.20;99.90;;;;;;5069419;28;20193;-41
2021/05/16 04:50:18;;;;;;;5.97;3.23;;;11.20;99.90;;;;;;5059895;28;20189;-40
2021/05/16 04:52:45;;;;;;;8.40;3.00;;;11.30;99.90;;;;;;5069181;28;20422;-41
2021/05/16 04:55:12;;;;;;;8.13;3.23;;;11.40;99.90;;;;;;5068669;28;20423;-41
2021/05/16 04:57:38;;;;;;;7.63;3.00;;;11.40;99.90;;;;;;5069165;28;20419;-43
2021/05/16 05:00:05;;;;;;;7.50;3.70;;;11.30;99.90;;;;;;5066955;28;20437;-43
2021/05/16 05:02:33;;;;;;;9.10;3.10;;;11.40;99.90;;;;;;5068896;28;20197;-46
2021/05/16 05:04:58;;;;;;;7.03;3.30;;;11.40;99.90;;;;;;5064006;28;20476;-43
2021/05/16 05:07:24;;;;;;;4.60;3.13;;;11.40;99.90;;;;;;5065657;28;20459;-44
2021/05/16 05:09:50;;;;;;;5.30;2.80;;;11.50;99.90;;;;;;5069320;28;20222;-43
2021/05/16 05:12:16;;;;;;;10.20;2.87;;;11.50;99.90;;;;;;5077149;28;20658;-40
2021/05/16 05:14:41;;;;;;;8.33;3.10;;;11.50;99.90;;;;;;5071327;28;20193;-41
2021/05/16 05:17:07;;;;;;;5.10;3.30;;;11.50;99.90;;;;;;5088750;28;20237;-44
2021/05/16 05:19:33;;;;;;;5.73;2.50;;;11.60;99.90;;;;;;5081369;28;20264;-41
2021/05/16 05:21:59;;;;;;;7.13;2.87;;;11.70;99.90;;;;;;5061883;28;20673;-41
2021/05/16 05:24:24;;;;;;;7.33;3.07;;;11.80;99.90;;;;;;5076145;28;20236;-45
2021/05/16 05:26:50;;;;;;;9.73;4.30;;;11.70;99.90;;;;;;5088647;28;20364;-41
2021/05/16 05:29:17;;;;;;;6.17;3.00;;;11.60;99.90;;;;;;5075606;28;20196;-41
2021/05/16 05:31:44;;;;;;;6.87;2.40;;;11.70;99.90;;;;;;5088656;28;20213;-41
2021/05/16 05:34:10;;;;;;;5.50;2.73;;;11.70;99.90;;;;;;5087999;28;20997;-40
2021/05/16 05:36:35;;;;;;;6.53;3.30;;;11.70;99.90;;;;;;5059741;28;20506;-42
2021/05/16 05:39:02;;;;;;;5.20;3.13;;;11.70;99.90;;;;;;5066706;28;20247;-41
2021/05/16 05:41:28;;;;;;;6.60;3.17;;;11.70;99.90;;;;;;5066850;28;20201;-42
2021/05/16 05:43:54;;;;;;;9.57;3.33;;;11.80;99.90;;;;;;5072080;28;21078;-41
2021/05/16 05:46:19;;;;;;;7.83;3.30;;;11.80;99.90;;;;;;5075222;28;20189;-41
2021/05/16 05:48:45;;;;;;;6.43;2.97;;;11.90;99.90;;;;;;5067492;28;20216;-41
2021/05/16 05:51:11;;;;;;;16.30;3.70;;;11.90;99.90;;;;;;5058717;28;20190;-42
2021/05/16 05:53:36;;;;;;;4.23;2.83;;;12.00;99.90;;;;;;5066600;28;20231;-41
2021/05/16 05:56:03;;;;;;;7.03;3.20;;;12.00;99.90;;;;;;5067095;28;20217;-41
2021/05/16 05:58:32;;;;;;;8.63;3.03;;;12.00;99.90;;;;;;5067754;28;20231;-42
2021/05/16 06:00:58;;;;;;;8.17;3.10;;;11.90;99.90;;;;;;5067486;28;20926;-43
2021/05/16 06:03:24;;;;;;;7.90;3.50;;;12.00;99.90;;;;;;5067725;28;20510;-41
2021/05/16 06:05:49;;;;;;;7.03;2.97;;;12.10;99.90;;;;;;5057096;28;20304;-40
2021/05/16 06:08:16;;;;;;;7.37;3.50;;;12.10;99.90;;;;;;5062502;28;20208;-42
2021/05/16 06:10:41;;;;;;;10.03;3.53;;;12.10;99.90;;;;;;5067248;28;20638;-43
2021/05/16 06:13:07;;;;;;;11.00;3.70;;;12.10;99.90;;;;;;5067685;28;20418;-42
2021/05/16 06:15:33;;;;;;;9.13;3.03;;;12.00;99.90;;;;;;5076740;28;20249;-41
2021/05/16 06:18:01;;;;;;;9.33;3.40;;;12.10;99.90;;;;;;5088124;28;20692;-41
2021/05/16 06:20:27;;;;;;;7.87;3.37;;;12.10;99.90;;;;;;5075359;28;20192;-42
2021/05/16 06:22:53;;;;;;;6.37;3.10;;;12.20;99.90;;;;;;5066522;28;20431;-41
2021/05/16 06:25:19;;;;;;;8.90;3.10;;;12.30;99.90;;;;;;5079380;28;20544;-43
2021/05/16 06:27:45;;;;;;;11.97;4.57;;;12.20;99.90;;;;;;5072113;28;20443;-44
2021/05/16 06:30:11;;;;;;;7.10;4.03;;;12.30;99.90;;;;;;5066978;28;20462;-42
2021/05/16 06:32:39;;;;;;;12.27;4.97;;;12.20;99.90;;;;;;5067742;28;20185;-43
2021/05/16 06:35:06;;;;;;;13.40;4.50;;;12.20;99.90;;;;;;5065957;28;20450;-42
2021/05/16 06:37:31;;;;;;;8.30;4.67;;;12.20;99.90;;;;;;5063248;28;20435;-42
2021/05/16 06:39:57;;;;;;;11.03;4.50;;;12.30;99.90;;;;;;5069377;28;20426;-42
2021/05/16 06:42:23;;;;;;;15.90;4.87;;;12.50;99.90;;;;;;5067493;28;20200;-41
2021/05/16 06:44:49;;;;;;;12.80;4.53;;;12.40;99.90;;;;;;5067622;28;20804;-41
2021/05/16 06:47:14;;;;;;;12.70;3.57;;;12.50;99.90;;;;;;5067449;28;20227;-41
2021/05/16 06:49:40;;;;;;;7.73;3.90;;;12.50;99.90;;;;;;5067521;28;20309;-43
2021/05/16 06:52:05;;;;;;;6.43;3.80;;;12.50;99.90;;;;;;5061233;28;20186;-40
2021/05/16 06:54:31;;;;;;;9.23;4.03;;;12.50;99.90;;;;;;5077800;28;20747;-40
2021/05/16 06:56:57;;;;;;;8.40;4.17;;;12.50;99.90;;;;;;5087057;28;20251;-41
2021/05/16 06:59:23;;;;;;;9.90;4.13;;;12.50;99.90;;;;;;5083201;28;20284;-42
2021/05/16 07:01:48;;;;;;;10.90;4.40;;;12.50;99.90;;;;;;5072825;28;20554;-41
2021/05/16 07:04:14;;;;;;;7.03;3.90;;;12.40;99.90;;;;;;5078393;28;20235;-43
2021/05/16 07:06:40;;;;;;;7.73;4.60;;;12.50;99.90;;;;;;5061829;28;20186;-41
2021/05/16 07:09:05;;;;;;;12.87;3.90;;;12.50;99.90;;;;;;5069351;28;20193;-42
2021/05/16 07:11:31;;;;;;;7.50;4.17;;;12.50;99.90;;;;;;5071024;28;20705;-43
2021/05/16 07:13:57;;;;;;;18.80;4.90;;;12.50;99.90;;;;;;5070711;28;20427;-41
2021/05/16 07:16:23;;;;;;;9.77;4.43;;;12.40;99.90;;;;;;5072306;28;20540;-44
2021/05/16 07:18:49;;;;;;;9.93;5.13;;;12.60;99.90;;;;;;5070821;28;20197;-41
2021/05/16 07:21:14;;;;;;;10.03;4.73;;;12.60;99.90;;;;;;5068822;28;20224;-41
2021/05/16 07:23:40;;;;;;;7.27;3.97;;;12.50;99.90;;;;;;5070301;28;21249;-42
2021/05/16 07:26:06;;;;;;;8.50;4.57;;;12.50;99.90;;;;;;5074889;28;20580;-42
2021/05/16 07:28:31;;;;;;;7.10;3.70;;;12.50;99.90;;;;;;5091110;28;20188;-43
2021/05/16 07:30:57;;;;;;;10.17;4.27;;;12.50;99.90;;;;;;5077274;28;20563;-41
2021/05/16 07:33:23;;;;;;;7.03;4.17;;;12.50;99.90;;;;;;5086914;28;20184;-41
2021/05/16 07:35:48;;;;;;;6.33;4.77;;;12.40;99.90;;;;;;5067187;28;20215;-43
2021/05/16 07:38:14;;;;;;;11.10;3.97;;;12.40;99.90;;;;;;5060826;28;20655;-43
2021/05/16 07:40:40;;;;;;;7.00;4.30;;;12.50;99.90;;;;;;5069530;28;20669;-41
2021/05/16 07:43:07;;;;;;;8.90;4.37;;;12.40;99.90;;;;;;5071723;28;20193;-42
2021/05/16 07:45:34;;;;;;;9.30;4.37;;;12.50;99.90;;;;;;5080597;28;20461;-41
2021/05/16 07:48:00;;;;;;;8.80;4.03;;;12.50;99.90;;;;;;5074612;28;20437;-43
2021/05/16 07:50:25;;;;;;;8.90;4.40;;;12.50;99.90;;;;;;5084038;28;20415;-46
2021/05/16 07:52:51;;;;;;;7.80;3.97;;;12.60;99.90;;;;;;5067684;28;20195;-42
2021/05/16 07:55:17;;;;;;;7.63;3.57;;;12.60;99.90;;;;;;5072464;28;20201;-43
2021/05/16 07:57:43;;;;;;;7.50;4.70;;;12.60;99.90;;;;;;5066447;28;20282;-41
2021/05/16 08:00:12;;;;;;;10.00;4.07;;;12.60;99.90;;;;;;5066796;28;20264;-42
2021/05/16 08:02:40;;;;;;;7.00;4.03;;;12.60;99.90;;;;;;5066018;28;20204;-42
2021/05/16 08:05:07;;;;;;;12.53;4.30;;;12.60;99.90;;;;;;5067350;28;20463;-42
2021/05/16 08:07:33;;;;;;;11.47;4.47;;;12.50;99.90;;;;;;5055547;28;20462;-42
2021/05/16 08:09:59;;;;;;;9.50;4.10;;;12.50;99.90;;;;;;5065529;28;20427;-44
2021/05/16 08:12:25;;;;;;;5.87;4.27;;;12.60;99.90;;;;;;5067248;28;20303;-43
2021/05/16 08:14:51;;;;;;;7.73;4.10;;;12.70;99.90;;;;;;5069661;28;20513;-43
2021/05/16 08:17:16;;;;;;;9.23;4.33;;;12.70;99.90;;;;;;5086989;28;20251;-42
2021/05/16 08:19:42;;;;;;;8.90;4.17;;;12.80;99.90;;;;;;5069032;28;20462;-43
2021/05/16 08:22:10;;;;;;;10.73;4.10;;;12.90;99.90;;;;;;5059142;28;20220;-42
2021/05/16 08:24:37;;;;;;;13.00;5.00;;;12.90;99.90;;;;;;5065928;28;20450;-43
2021/05/16 08:27:07;;;;;;;12.27;5.73;;;12.90;99.90;;;;;;5066695;28;20427;-41
2021/05/16 08:29:35;;;;;;;14.03;5.00;;;12.70;99.90;;;;;;5061817;28;20432;-41
2021/05/16 08:32:04;;;;;;;11.87;4.63;;;12.70;99.90;;;;;;5067000;28;20435;-42
2021/05/16 08:34:30;;;;;;;11.43;4.67;;;12.80;99.90;;;;;;5066722;28;20427;-44
2021/05/16 08:36:56;;;;;;;8.20;4.63;;;12.80;99.90;;;;;;5060509;28;20924;-43
2021/05/16 08:39:21;;;;;;;8.27;4.10;;;13.00;99.90;;;;;;5063250;28;20430;-43
2021/05/16 08:41:47;;;;;;;5.10;4.13;;;13.10;99.90;;;;;;5066460;28;20227;-42
2021/05/16 08:44:13;;;;;;;9.43;5.00;;;13.40;99.90;;;;;;5065801;28;20213;-44
2021/05/16 08:46:39;;;;;;;13.47;5.50;;;13.60;99.90;;;;;;5066486;28;20196;-44
2021/05/16 08:49:05;;;;;;;12.50;4.43;;;13.60;99.90;;;;;;5065771;28;20603;-41
2021/05/16 08:51:31;;;;;;;10.87;4.50;;;13.60;99.90;;;;;;5063213;28;20434;-41
2021/05/16 08:53:56;;;;;;;13.07;4.80;;;13.60;99.90;;;;;;5067311;28;20200;-44
2021/05/16 08:56:22;;;;;;;13.03;4.13;;;13.60;99.90;;;;;;5069326;28;20412;-42
2021/05/16 08:58:48;;;;;;;9.20;4.07;;;13.60;99.90;;;;;;5065555;28;20213;-42
2021/05/16 09:01:22;;;;;;;6.40;3.50;;;13.60;99.90;;;;;;5065917;28;20197;-41
2021/05/16 09:03:49;;;;;;;12.00;5.23;;;13.60;99.90;;;;;;5066056;28;20678;-42
2021/05/16 09:06:16;;;;;;;7.87;3.70;;;13.60;99.90;;;;;;5065498;28;20519;-44
2021/05/16 09:08:42;;;;;;;6.40;3.40;;;13.50;99.90;;;;;;5041592;28;20478;-44
2021/05/16 09:11:09;;;;;;;9.27;3.93;;;13.40;99.90;;;;;;5065954;28;20446;-41
2021/05/16 09:13:39;;;;;;;4.90;3.30;;;13.50;99.90;;;;;;5065276;28;20605;-41
2021/05/16 09:16:06;;;;;;;7.70;2.70;;;13.50;99.90;;;;;;5063668;28;20431;-45
2021/05/16 09:18:52;;;;;;;5.67;3.60;;;13.50;99.90;;;;;;5065508;28;20431;-44
2021/05/16 09:21:34;;;;;;;6.50;3.30;;;13.60;99.90;;;;;;5068509;28;20417;-41
2021/05/16 09:24:00;;;;;;;5.70;3.60;;;13.50;99.90;;;;;;5060092;28;20434;-41
2021/05/16 09:26:34;;;;;;;8.73;3.37;;;13.70;99.90;;;;;;5072624;28;20409;-41
2021/05/16 09:29:28;;;;;;;6.90;3.67;;;13.60;99.90;;;;;;5077645;28;20792;-42
2021/05/16 09:31:56;;;;;;;4.07;3.67;;;13.60;99.90;;;;;;5060366;28;20421;-43
2021/05/16 09:34:22;;;;;;;9.63;4.63;;;13.60;99.90;;;;;;5065761;28;20434;-42
2021/05/16 09:36:49;;;;;;;8.80;3.80;;;13.70;99.90;;;;;;5061992;28;20801;-43
2021/05/16 09:39:34;;;;;;;10.50;4.13;;;13.80;99.90;;;;;;5066462;28;20448;-44
2021/05/16 09:42:08;;;;;;;6.70;3.70;;;14.00;99.90;;;;;;5065723;28;20531;-42
2021/05/16 09:44:35;;;;;;;5.30;3.63;;;14.10;99.90;;;;;;5065734;28;20984;-42
2021/05/16 09:47:14;;;;;;;6.73;4.37;;;14.40;99.90;;;;;;5065132;28;20431;-42
2021/05/16 09:49:48;;;;;;;5.20;3.20;;;14.70;99.90;;;;;;5065281;28;20919;-43
2021/05/16 09:52:28;;;;;;;6.03;4.00;;;15.00;99.90;;;;;;5062602;28;20419;-43
2021/05/16 09:55:08;;;;;;;5.60;3.00;;;15.10;99.90;;;;;;5058231;28;20498;-42
2021/05/16 09:57:36;;;;;;;6.77;2.93;;;15.10;99.90;;;;;;5063442;28;20926;-41
2021/05/16 10:00:07;;;;;;;5.23;3.20;;;15.10;99.90;;;;;;5064706;28;20432;-44
2021/05/16 10:02:33;;;;;;;5.70;3.27;;;15.00;99.90;;;;;;5065136;28;20427;-44
2021/05/16 10:05:01;;;;;;;6.03;3.00;;;15.10;99.90;;;;;;5065414;28;20469;-45
2021/05/16 10:07:28;;;;;;;4.43;2.67;;;15.30;99.90;;;;;;5061593;28;20194;-42
2021/05/16 10:09:55;;;;;;;9.83;3.07;;;15.40;99.90;;;;;;5057217;28;20473;-41
2021/05/16 10:12:23;;;;;;;4.20;2.50;;;15.50;99.90;;;;;;5064885;28;20548;-41
2021/05/16 10:14:56;;;;;;;7.83;2.73;;;15.60;99.90;;;;;;5064118;28;20420;-42
2021/05/16 10:17:22;;;;;;;4.90;2.50;;;15.80;99.90;;;;;;5064741;28;20430;-41
2021/05/16 10:19:49;;;;;;;5.67;3.07;;;15.80;99.90;;;;;;5065872;28;20554;-43
2021/05/16 10:22:17;;;;;;;6.77;2.90;;;15.70;99.90;;;;;;5064863;28;20431;-41
2021/05/16 10:24:45;;;;;;;3.83;2.10;;;15.40;99.90;;;;;;5059425;28;20467;-42
2021/05/16 10:27:32;;;;;;;4.17;2.10;;;15.10;99.90;;;;;;5069045;28;20411;-41
2021/05/16 10:30:01;;;;;;;2.80;1.50;;;14.70;99.90;;;;;;5076769;28;20414;-42
2021/05/16 10:32:41;;;;;;;3.20;1.77;;;14.50;99.90;;;;;;5082942;28;20628;-42
2021/05/16 10:35:09;;;;;;;3.37;1.60;;;14.40;99.90;;;;;;5082450;28;20916;-42
2021/05/16 10:37:53;;;;;;;2.93;1.80;;;14.40;99.90;;;;;;5055294;28;20447;-43
2021/05/16 10:40:24;;;;;;;3.50;2.23;;;14.70;99.90;;;;;;5060426;28;20419;-42
2021/05/16 10:42:56;;;;;;;4.37;1.43;;;14.90;99.90;;;;;;5076146;28;20423;-41
2021/05/16 10:45:32;;;;;;;3.50;1.10;;;15.10;99.90;;;;;;5073390;28;21234;-41
2021/05/16 10:48:19;;;;;;;5.13;1.40;;;15.30;99.90;;;;;;5070450;28;20956;-41
2021/05/16 10:50:57;;;;;;;2.13;1.07;;;15.50;99.90;;;;;;5069889;28;20418;-42
2021/05/16 10:53:32;;;;;;;2.40;1.10;;;15.60;99.90;;;;;;5066355;28;20505;-41
2021/05/16 10:56:13;;;;;;;4.80;1.70;;;15.70;99.90;;;;;;5063857;28;20419;-41
2021/05/16 10:58:40;;;;;;;4.90;1.50;;;15.70;99.90;;;;;;5077866;28;20429;-40
2021/05/16 11:01:30;;;;;;;4.53;1.30;;;15.60;99.90;;;;;;5090405;28;20995;-42
2021/05/16 11:04:00;;;;;;;2.83;1.10;;;15.50;99.90;;;;;;5084759;28;21111;-42
2021/05/16 11:06:37;;;;;;;3.40;1.50;;;15.40;99.90;;;;;;5062232;28;20422;-41
2021/05/16 11:09:06;;;;;;;3.57;1.40;;;15.30;99.90;;;;;;5058001;28;20447;-42
2021/05/16 11:11:39;;;;;;;2.03;0.93;;;15.10;99.90;;;;;;5069838;28;20419;-41
2021/05/16 11:14:18;;;;;;;2.43;1.00;;;14.90;99.90;;;;;;5079614;28;20414;-41
2021/05/16 11:16:56;;;;;;;1.00;0.80;;;14.70;99.90;;;;;;5086974;28;20812;-41
2021/05/16 11:19:23;;;;;;;1.17;0.70;;;14.60;99.90;;;;;;5080168;28;20410;-41
2021/05/16 11:21:49;;;;;;;0.83;0.80;;;14.60;99.90;;;;;;5087275;28;20452;-43
2021/05/16 11:24:16;;;;;;;4.20;0.93;;;14.30;99.90;;;;;;5077629;28;20458;-41
2021/05/16 11:26:43;;;;;;;1.37;0.80;;;14.30;99.90;;;;;;5059363;28;20189;-43
2021/05/16 11:29:09;;;;;;;2.97;0.90;;;14.60;99.90;;;;;;5063197;28;20416;-42
2021/05/16 11:31:35;;;;;;;2.00;1.10;;;14.80;99.90;;;;;;5068096;28;20411;-42
2021/05/16 11:34:04;;;;;;;4.80;1.57;;;15.20;99.90;;;;;;5067748;28;20423;-41
2021/05/16 11:36:32;;;;;;;3.73;1.57;;;15.60;99.90;;;;;;5067216;28;20198;-41
2021/05/16 11:39:00;;;;;;;4.00;1.40;;;15.70;99.90;;;;;;5063378;28;20428;-42
2021/05/16 11:41:39;;;;;;;2.50;1.20;;;15.70;99.90;;;;;;5058560;28;20783;-41
2021/05/16 11:44:07;;;;;;;4.10;1.30;;;15.80;99.90;;;;;;5067545;28;20587;-41
2021/05/16 11:46:41;;;;;;;2.90;1.77;;;15.80;99.90;;;;;;5068309;28;20658;-40
2021/05/16 11:49:08;;;;;;;4.20;1.37;;;15.80;99.90;;;;;;5067021;28;20427;-41
2021/05/16 11:51:34;;;;;;;3.30;1.90;;;15.90;99.90;;;;;;5067626;28;20518;-43
2021/05/16 11:54:06;;;;;;;3.40;1.63;;;15.90;99.90;;;;;;5064227;28;20510;-41
2021/05/16 11:56:47;;;;;;;5.30;1.93;;;15.90;99.90;;;;;;5071869;28;20748;-41
2021/05/16 11:59:13;;;;;;;6.83;2.03;;;15.90;99.90;;;;;;5066640;28;20449;-42
2021/05/16 12:01:45;;;;;;;6.17;2.23;;;16.00;99.90;;;;;;5066857;28;20749;-42
2021/05/16 12:04:16;;;;;;;3.07;2.03;;;16.00;99.90;;;;;;5070778;28;20426;-42
2021/05/16 12:06:46;;;;;;;3.40;2.30;;;16.00;99.90;;;;;;5079177;28;20415;-43
2021/05/16 12:09:15;;;;;;;5.77;1.77;;;16.20;99.90;;;;;;5062611;28;20419;-41
2021/05/16 12:11:41;;;;;;;5.00;2.53;;;16.30;99.90;;;;;;5068226;28;20775;-41
2021/05/16 12:14:14;;;;;;;3.97;2.20;;;16.30;99.90;;;;;;5066352;28;20443;-41
2021/05/16 12:16:48;;;;;;;4.53;1.20;;;16.30;99.90;;;;;;5085475;28;20407;-42
2021/05/16 12:19:22;;;;;;;1.87;1.10;;;16.30;99.90;;;;;;5084939;28;20414;-43
2021/05/16 12:21:52;;;;;;;4.20;1.53;;;16.20;99.90;;;;;;5087253;28;20879;-45
2021/05/16 12:24:22;;;;;;;3.40;1.23;;;16.20;99.90;;;;;;5083991;28;20807;-42
2021/05/16 12:26:49;;;;;;;3.33;1.37;;;16.20;99.90;;;;;;5058785;28;20634;-42
2021/05/16 12:29:17;;;;;;;1.83;1.30;;;16.20;99.90;;;;;;5075327;28;20427;-41
2021/05/16 12:31:43;;;;;;;2.13;1.00;;;16.20;99.90;;;;;;5086892;28;20418;-41
2021/05/16 12:34:09;;;;;;;3.40;1.80;;;16.20;99.90;;;;;;5076593;28;20415;-45
2021/05/16 12:37:10;;;;;;;3.03;1.47;;;16.20;99.50;;;;;;5086873;28;20425;-42
2021/05/16 12:39:42;;;;;;;1.60;1.07;;;16.30;99.30;;;;;;5071447;28;20523;-42
2021/05/16 12:42:34;;;;;;;2.30;1.50;;;16.20;98.30;;;;;;5060051;28;20412;-43
2021/05/16 12:45:17;;;;;;;3.87;1.07;;;16.20;98.30;;;;;;5055557;28;20463;-41
2021/05/16 12:48:01;;;;;;;3.30;1.50;;;16.30;97.60;;;;;;5065805;28;20423;-42
2021/05/16 12:50:34;;;;;;;3.23;2.00;;;16.40;98.80;;;;;;5065966;28;20442;-41